Armstrong, IA (50514)

3:25 AM CDT on July 13, 2014 (GMT -0500)
Estherville Municipal (KEST) Elev 1316 ft | 43.40 °N, 94.75 °W | Change Station

Current weather conditions updated 33 minutes ago

Clear
Clear
63 °F
Feels Like 63 °F
N
6
Wind Variable Wind from West

Today is forecast to be nearly the same temperature as yesterday.

Today
High -- | Low -- °F
--% Chance of Precip.
Yesterday
High -- | Low -- °F
Precip. -- in
5:49 AM 8:57 PM
Full, 99% visible
Pressure 29.97 in
Visibility 8.0 miles
Clouds Clear
Dew Point 62 °F
Humidity 97%
Rainfall 0.00 in
Snow Depth Not available.
UV 0 out of 12
Pollen .50 out of 12
Air Quality Not available.
Flu Activity Sporadic
METAR KEST 130752Z AUTO 26005KT 8SM CLR 17/17 A2998 RMK AO2 SLP149 T01720167

More Conditions Fewer Conditions

Pressure 29.97 in
Visibility 8.0 miles
Clouds Clear
Dew Point 62 °F
Humidity 97%
Rainfall 0.00 in
Snow Depth Not available.
UV 0 out of 12
Pollen .50 out of 12
Air Quality Not available.
Flu Activity Sporadic
METAR KEST 130752Z AUTO 26005KT 8SM CLR 17/17 A2998 RMK AO2 SLP149 T01720167

More Conditions Fewer Conditions

10-Day Weather Forecast

Almanac

Astronomy

Jul. 13, 2014 Rise Set
Actual Time 5:49 AM CDT 8:57 PM CDT
Civil Twilight 5:14 AM CDT 9:32 PM CDT
Nautical Twilight 4:30 AM CDT 10:16 PM CDT
Astronomical Twilight 3:36 AM CDT 11:09 PM CDT
Moon 9:41 PM CDT 7:24 AM CDT
Length of Visible Light 16h 17m
Length of Day
15h 08m
Tomorrow will be 1m 28s shorter.
Full, 99% of the Moon is Illuminated
Today
Full
Jul 18
Last Quarter
Jul 26
New
Aug 3
First Quarter
Aug 10
Full

Today's Extremes

State Highs State Lows

Community

WunderPhotos

Upload Photos

1,733,143 photos uploaded!

Nearby

Snow Depth

Station Depth Elevation
No new snow has been reported.

Earthquake Activity

City Distance Mag. Time & Date
No recent earthquake activity has been reported nearby.
Minimum magnitude displayed is 2.5.

Coastal Water Temperatures

Place Temperature
No Stations Reporting

Nearby Weather Stations

Station Location Temp. Dew Point Humidity Wind Precip. Elev Updated Type
NuWay Coop - Welcome, Welcome, MN 65.4 °F 63 °F 93% SW  at  4.0 mph 0.00 in / hr 1224 ft 3:18 AM CDT Normal

Show More Stations Show Fewer Stations